createdAt,value
2023-04-03T00:02:19.055Z,8.00
2023-04-03T00:04:47.897Z,7.60
2023-04-03T00:07:15.743Z,8.45
2023-04-03T00:09:42.343Z,8.95
2023-04-03T00:12:08.943Z,6.38
2023-04-03T00:14:35.580Z,7.35
2023-04-03T00:17:02.210Z,6.45
2023-04-03T00:19:31.898Z,6.22
2023-04-03T00:22:03.790Z,7.35
2023-04-03T00:24:30.375Z,7.57
2023-04-03T00:26:57.015Z,6.97
2023-04-03T00:29:23.816Z,7.47
2023-04-03T00:31:50.463Z,7.30
2023-04-03T00:34:17.091Z,9.50
2023-04-03T00:36:43.758Z,7.95
2023-04-03T00:39:13.983Z,8.65
2023-04-03T00:41:41.316Z,6.53
2023-04-03T00:44:44.259Z,5.93
2023-04-03T00:47:17.049Z,6.95
2023-04-03T00:49:44.337Z,5.82
2023-04-03T00:52:19.875Z,6.03
2023-04-03T00:54:50.767Z,7.13
2023-04-03T00:57:20.023Z,8.50
2023-04-03T00:59:51.739Z,7.43
2023-04-03T01:02:21.119Z,7.25
2023-04-03T01:04:48.341Z,6.55
2023-04-03T01:07:38.013Z,7.75
2023-04-03T01:10:09.078Z,8.80
2023-04-03T01:12:46.848Z,8.65
2023-04-03T01:15:27.440Z,8.50
2023-04-03T01:17:57.378Z,7.10
2023-04-03T01:20:33.177Z,6.57
2023-04-03T01:23:09.644Z,6.93
2023-04-03T01:25:49.123Z,6.93
2023-04-03T01:28:20.269Z,5.50
2023-04-03T01:30:54.360Z,7.88
2023-04-03T01:33:22.088Z,6.03
2023-04-03T01:35:49.506Z,7.95
2023-04-03T01:38:19.634Z,7.95
2023-04-03T01:40:46.483Z,7.60
2023-04-03T01:43:13.555Z,10.10
2023-04-03T01:45:40.330Z,6.63
2023-04-03T01:48:11.105Z,7.07
2023-04-03T01:50:40.491Z,8.32
2023-04-03T01:53:11.847Z,5.53
2023-04-03T01:55:41.256Z,6.50
2023-04-03T01:58:09.164Z,6.78
2023-04-03T02:00:46.481Z,5.78
2023-04-03T02:03:19.096Z,6.30
2023-04-03T02:05:51.421Z,5.55
2023-04-03T02:08:21.704Z,7.55
2023-04-03T02:10:58.846Z,5.80
2023-04-03T02:13:28.672Z,6.57
2023-04-03T02:15:56.456Z,9.82
2023-04-03T02:18:23.143Z,6.13
2023-04-03T02:20:56.965Z,8.43
2023-04-03T02:23:23.789Z,7.72
2023-04-03T02:25:51.374Z,6.90
2023-04-03T02:28:20.474Z,7.40
2023-04-03T02:30:47.580Z,5.47
2023-04-03T02:33:24.546Z,6.93
2023-04-03T02:35:56.628Z,7.75
2023-04-03T02:38:31.546Z,8.00
2023-04-03T02:41:39.582Z,7.20
2023-04-03T02:44:21.179Z,7.18
2023-04-03T02:47:05.282Z,9.48
2023-04-03T02:49:39.848Z,6.35
2023-04-03T02:52:15.507Z,8.10
2023-04-03T02:54:45.452Z,6.95
2023-04-03T02:57:12.201Z,5.50
2023-04-03T02:59:43.008Z,6.07
2023-04-03T03:02:12.142Z,9.38
2023-04-03T03:04:39.020Z,7.13
2023-04-03T03:07:08.983Z,7.35
2023-04-03T03:09:36.500Z,9.57
2023-04-03T03:12:03.254Z,7.78
2023-04-03T03:14:36.011Z,8.35
2023-04-03T03:17:19.162Z,8.10
2023-04-03T03:19:55.646Z,6.03
2023-04-03T03:22:33.344Z,5.60
2023-04-03T03:25:03.768Z,4.35
2023-04-03T03:27:30.670Z,4.20
2023-04-03T03:29:57.584Z,6.50
2023-04-03T03:32:28.777Z,6.85
2023-04-03T03:34:55.920Z,6.55
2023-04-03T03:37:22.896Z,7.95
2023-04-03T03:39:49.719Z,6.90
2023-04-03T03:42:21.723Z,8.68
2023-04-03T03:44:53.114Z,6.60
2023-04-03T03:47:22.470Z,5.50
2023-04-03T03:49:51.497Z,7.15
2023-04-03T03:52:19.827Z,6.72
2023-04-03T03:54:52.270Z,6.35
2023-04-03T03:57:22.250Z,5.97
2023-04-03T03:59:54.371Z,5.07
2023-04-03T04:02:24.471Z,6.90
2023-04-03T04:04:53.424Z,8.10
2023-04-03T04:07:23.001Z,8.38
2023-04-03T04:09:49.798Z,4.28
2023-04-03T04:12:16.940Z,6.55
2023-04-03T04:14:43.702Z,9.07
2023-04-03T04:17:10.426Z,9.00
2023-04-03T04:19:37.495Z,8.68
2023-04-03T04:22:07.629Z,8.65
2023-04-03T04:24:34.417Z,6.95
2023-04-03T04:27:02.870Z,7.32
2023-04-03T04:29:33.187Z,6.55
2023-04-03T04:31:59.969Z,7.97
2023-04-03T04:34:29.112Z,7.50
2023-04-03T04:37:01.539Z,5.80
2023-04-03T04:39:31.164Z,6.47
2023-04-03T04:42:02.054Z,6.55
2023-04-03T04:44:33.098Z,7.85
2023-04-03T04:47:04.563Z,6.45
2023-04-03T04:49:34.873Z,8.63
2023-04-03T04:52:01.763Z,6.63
2023-04-03T04:54:31.744Z,7.15
2023-04-03T04:56:59.504Z,7.32
2023-04-03T04:59:27.486Z,6.18
2023-04-03T05:01:56.973Z,5.90
2023-04-03T05:04:24.398Z,8.60
2023-04-03T05:06:57.890Z,9.40
2023-04-03T05:09:28.308Z,29.92
2023-04-03T05:11:56.163Z,10.35
2023-04-03T05:14:28.591Z,11.90
2023-04-03T05:16:59.909Z,6.18
2023-04-03T05:19:34.522Z,7.30
2023-04-03T05:22:05.808Z,6.85
2023-04-03T05:24:37.294Z,8.10
2023-04-03T05:27:04.995Z,6.22
2023-04-03T05:29:38.994Z,7.15
2023-04-03T05:32:09.849Z,6.65
2023-04-03T05:34:39.509Z,8.43
2023-04-03T05:37:06.335Z,6.22
2023-04-03T05:39:42.085Z,6.70
2023-04-03T05:42:15.043Z,7.63
2023-04-03T05:44:42.245Z,10.55
2023-04-03T05:47:09.094Z,7.50
2023-04-03T05:49:44.638Z,7.15
2023-04-03T05:52:34.492Z,6.55
2023-04-03T05:55:01.618Z,7.88
2023-04-03T05:57:32.664Z,7.85
2023-04-03T06:00:10.613Z,7.18
2023-04-03T06:02:49.665Z,6.75
2023-04-03T06:05:26.755Z,8.63
2023-04-03T06:08:00.368Z,4.85
2023-04-03T06:10:46.277Z,5.80
2023-04-03T06:13:22.640Z,5.90
2023-04-03T06:16:07.527Z,5.97
2023-04-03T06:18:36.671Z,5.25
2023-04-03T06:21:16.133Z,6.85
2023-04-03T06:23:45.449Z,5.45
2023-04-03T06:26:12.155Z,6.00
2023-04-03T06:28:41.717Z,6.53
2023-04-03T06:31:11.787Z,9.45
2023-04-03T06:33:49.986Z,5.78
2023-04-03T06:36:23.744Z,9.32
2023-04-03T06:38:53.259Z,8.18
2023-04-03T06:41:26.655Z,6.68
2023-04-03T06:44:04.434Z,4.38
2023-04-03T06:46:31.594Z,6.38
2023-04-03T06:49:01.299Z,5.85
2023-04-03T06:51:30.028Z,4.93
2023-04-03T06:53:59.148Z,4.82
2023-04-03T06:56:29.172Z,5.10
2023-04-03T06:59:06.176Z,6.63
2023-04-03T07:01:35.538Z,5.10
2023-04-03T07:04:09.688Z,8.05
2023-04-03T07:06:36.597Z,7.15
2023-04-03T07:09:06.434Z,3.83
2023-04-03T07:11:33.646Z,8.00
2023-04-03T07:14:01.469Z,5.25
2023-04-03T07:16:36.066Z,6.60
2023-04-03T07:19:15.549Z,5.65
2023-04-03T07:21:44.353Z,8.70
2023-04-03T07:24:17.226Z,6.15
2023-04-03T07:26:44.749Z,6.35
2023-04-03T07:29:11.582Z,7.05
2023-04-03T07:31:51.107Z,3.95
2023-04-03T07:34:29.965Z,5.57
2023-04-03T07:37:02.236Z,4.07
2023-04-03T07:39:29.445Z,5.05
2023-04-03T07:41:57.217Z,6.97
2023-04-03T07:44:27.547Z,5.50
2023-04-03T07:46:54.449Z,5.78
2023-04-03T07:49:27.123Z,5.25
2023-04-03T07:51:54.073Z,6.32
2023-04-03T07:54:25.866Z,5.82
2023-04-03T07:56:52.525Z,4.60
2023-04-03T07:59:19.129Z,4.68
2023-04-03T08:01:45.860Z,7.38
2023-04-03T08:04:12.898Z,3.15
2023-04-03T08:06:46.632Z,4.85
2023-04-03T08:09:17.699Z,4.63
2023-04-03T08:11:54.402Z,3.88
2023-04-03T08:14:23.542Z,4.20
2023-04-03T08:16:50.688Z,4.15
2023-04-03T08:19:25.474Z,5.43
2023-04-03T08:21:55.819Z,4.85
2023-04-03T08:24:22.648Z,3.60
2023-04-03T08:26:49.316Z,4.82
2023-04-03T08:29:22.259Z,3.85
2023-04-03T08:31:52.662Z,3.55
2023-04-03T08:34:20.491Z,4.72
2023-04-03T08:36:47.518Z,4.22
2023-04-03T08:39:32.610Z,3.75
2023-04-03T08:42:27.455Z,4.15
2023-04-03T08:45:49.623Z,3.78
2023-04-03T08:48:56.620Z,3.70
2023-04-03T08:51:27.381Z,3.53
2023-04-03T08:53:53.898Z,5.25
2023-04-03T08:56:21.500Z,4.32
2023-04-03T08:58:59.054Z,3.47
2023-04-03T09:01:40.920Z,4.43
2023-04-03T09:04:18.051Z,3.15
2023-04-03T09:06:50.628Z,2.33
2023-04-03T09:09:54.077Z,3.17
2023-04-03T09:12:33.075Z,2.95
2023-04-03T09:15:12.623Z,2.10
2023-04-03T09:17:45.408Z,1.83
2023-04-03T09:20:22.880Z,2.30
2023-04-03T09:22:53.012Z,2.63
2023-04-03T09:25:26.599Z,1.52
2023-04-03T09:27:54.004Z,2.17
2023-04-03T09:30:24.673Z,4.40
2023-04-03T09:32:53.832Z,2.03
2023-04-03T09:35:40.469Z,2.58
2023-04-03T09:38:15.085Z,2.38
2023-04-03T09:40:48.809Z,2.97
2023-04-03T09:43:18.349Z,3.13
2023-04-03T09:45:48.284Z,3.00
2023-04-03T09:48:21.279Z,3.55
2023-04-03T09:50:51.301Z,3.65
2023-04-03T09:53:43.474Z,2.95
2023-04-03T09:56:19.184Z,1.83
2023-04-03T09:58:51.097Z,3.28
2023-04-03T10:01:39.320Z,2.00
2023-04-03T10:06:41.681Z,2.55
2023-04-03T10:09:34.386Z,3.08
2023-04-03T10:12:10.993Z,2.05
2023-04-03T10:15:04.419Z,2.75
2023-04-03T10:17:58.414Z,3.55
2023-04-03T10:20:43.828Z,3.45
2023-04-03T10:23:23.535Z,4.07
2023-04-03T10:26:06.274Z,2.28
2023-04-03T10:29:05.899Z,5.32
2023-04-03T10:31:46.389Z,3.45
2023-04-03T10:35:02.335Z,1.80
2023-04-03T10:37:55.070Z,2.65
2023-04-03T10:40:45.142Z,2.90
2023-04-03T10:43:36.186Z,3.20
2023-04-03T10:46:17.542Z,3.45
2023-04-03T10:49:28.237Z,2.67
2023-04-03T10:52:00.434Z,3.05
2023-04-03T10:54:47.794Z,4.22
2023-04-03T10:57:18.704Z,3.80
2023-04-03T10:59:48.398Z,4.38
2023-04-03T11:02:31.040Z,3.65
2023-04-03T11:05:33.592Z,3.78
2023-04-03T11:08:05.614Z,4.97
2023-04-03T11:10:49.104Z,3.13
2023-04-03T11:13:26.242Z,3.65
2023-04-03T11:15:54.406Z,2.58
2023-04-03T11:18:33.561Z,2.72
2023-04-03T11:21:07.920Z,3.10
2023-04-03T11:23:48.919Z,2.97
2023-04-03T11:26:23.007Z,3.88
2023-04-03T11:29:17.888Z,2.08
2023-04-03T11:32:02.845Z,2.85
2023-04-03T11:34:48.258Z,4.20
2023-04-03T11:37:26.033Z,5.28
2023-04-03T11:40:04.344Z,5.32
2023-04-03T11:42:54.772Z,4.78
2023-04-03T11:45:30.888Z,4.55
2023-04-03T11:47:57.551Z,3.33
2023-04-03T11:50:42.459Z,1.88
2023-04-03T11:53:09.437Z,3.45
2023-04-03T11:55:36.921Z,3.28
2023-04-03T11:58:14.306Z,2.03
2023-04-03T12:01:05.801Z,3.97
2023-04-03T12:03:43.387Z,3.50
2023-04-03T12:06:16.486Z,4.65
2023-04-03T12:08:43.002Z,3.47
2023-04-03T12:11:09.574Z,3.15
2023-04-03T12:13:43.411Z,3.22
2023-04-03T12:16:28.086Z,3.33
2023-04-03T12:18:54.954Z,3.25
2023-04-03T12:21:30.731Z,2.83
2023-04-03T12:24:08.601Z,2.58
2023-04-03T12:26:47.647Z,2.67
2023-04-03T12:29:37.445Z,2.90
2023-04-03T12:32:14.588Z,2.15
2023-04-03T12:37:48.812Z,2.47
2023-04-03T12:41:00.456Z,3.78
2023-04-03T12:43:52.133Z,3.13
2023-04-03T12:46:22.650Z,4.38
2023-04-03T12:48:52.049Z,2.47
2023-04-03T12:51:31.646Z,2.88
2023-04-03T12:54:04.646Z,2.33
2023-04-03T12:56:33.713Z,2.58
2023-04-03T12:59:22.435Z,2.05
2023-04-03T13:01:59.957Z,3.58
2023-04-03T13:04:29.729Z,2.72
2023-04-03T13:06:56.870Z,2.97
2023-04-03T13:09:31.994Z,3.10
2023-04-03T13:12:15.067Z,2.38
2023-04-03T13:14:56.618Z,3.22
2023-04-03T13:17:24.033Z,1.95
2023-04-03T13:19:56.309Z,2.20
2023-04-03T13:22:44.492Z,1.42
2023-04-03T13:25:25.380Z,3.60
2023-04-03T13:28:03.442Z,3.20
2023-04-03T13:30:42.561Z,1.80
2023-04-03T13:33:25.132Z,2.28
2023-04-03T13:36:33.324Z,2.75
2023-04-03T13:39:25.956Z,2.40
2023-04-03T13:42:06.083Z,3.55
2023-04-03T13:47:26.672Z,3.47
2023-04-03T13:50:17.708Z,3.55
2023-04-03T13:53:02.770Z,2.15
2023-04-03T13:55:36.259Z,3.05
2023-04-03T13:58:05.491Z,3.70
2023-04-03T14:01:02.294Z,3.58
2023-04-03T14:03:42.694Z,2.90
2023-04-03T14:06:21.607Z,3.63
2023-04-03T14:08:50.202Z,2.58
2023-04-03T14:11:25.489Z,2.80
2023-04-03T14:17:44.329Z,3.60
2023-04-03T14:20:29.189Z,2.22
2023-04-03T14:22:58.406Z,2.60
2023-04-03T14:25:26.672Z,2.38
2023-04-03T14:27:54.900Z,3.08
2023-04-03T14:30:34.690Z,2.75
2023-04-03T14:33:01.890Z,5.00
2023-04-03T14:35:34.674Z,2.63
2023-04-03T14:38:01.574Z,2.60
2023-04-03T14:40:32.931Z,3.97
2023-04-03T14:43:00.536Z,3.78
2023-04-03T14:45:32.360Z,3.35
2023-04-03T14:48:01.317Z,4.32
2023-04-03T14:50:28.325Z,2.70
2023-04-03T14:52:59.821Z,4.68
2023-04-03T14:55:30.020Z,3.95
2023-04-03T14:58:11.264Z,6.18
2023-04-03T15:00:39.767Z,2.25
2023-04-03T15:03:30.215Z,3.22
2023-04-03T15:06:13.294Z,3.00
2023-04-03T15:08:57.730Z,5.68
2023-04-03T15:11:36.540Z,2.38
2023-04-03T15:14:06.406Z,4.10
2023-04-03T15:16:33.298Z,4.03
2023-04-03T15:19:02.893Z,3.05
2023-04-03T15:21:34.869Z,3.53
2023-04-03T15:24:07.949Z,3.95
2023-04-03T15:26:34.941Z,2.55
2023-04-03T15:29:06.947Z,3.22
2023-04-03T15:31:35.949Z,3.80
2023-04-03T15:34:10.387Z,2.05
2023-04-03T15:36:43.353Z,3.45
2023-04-03T15:39:10.227Z,2.75
2023-04-03T15:41:41.101Z,4.07
2023-04-03T15:44:07.926Z,5.38
2023-04-03T15:46:36.596Z,2.67
2023-04-03T15:49:14.198Z,2.80
2023-04-03T15:51:44.261Z,4.00
2023-04-03T15:54:16.996Z,3.78
2023-04-03T15:56:43.878Z,3.42
2023-04-03T15:59:11.100Z,2.72
2023-04-03T16:01:43.773Z,5.05
2023-04-03T16:04:12.611Z,5.45
2023-04-03T16:06:43.767Z,5.57
2023-04-03T16:09:14.836Z,3.60
2023-04-03T16:11:44.554Z,2.58
2023-04-03T16:14:11.597Z,4.35
2023-04-03T16:16:39.428Z,4.97
2023-04-03T16:19:19.137Z,5.70
2023-04-03T16:22:03.625Z,4.80
2023-04-03T16:24:30.719Z,4.13
2023-04-03T16:27:00.314Z,3.47
2023-04-03T16:29:45.385Z,4.10
2023-04-03T16:32:15.344Z,3.03
2023-04-03T16:34:42.858Z,5.78
2023-04-03T16:37:17.677Z,4.35
2023-04-03T16:39:53.286Z,3.00
2023-04-03T16:42:28.772Z,3.00
2023-04-03T16:45:00.965Z,3.58
2023-04-03T17:32:57.065Z,5.00
2023-04-03T17:36:33.371Z,4.05
2023-04-03T17:43:59.206Z,3.10
2023-04-03T18:04:42.544Z,4.72
2023-04-03T18:07:10.207Z,4.00
2023-04-03T18:09:39.548Z,5.07
2023-04-03T18:12:10.787Z,3.40
2023-04-03T18:14:39.013Z,3.88
2023-04-03T18:17:06.239Z,4.47
2023-04-03T18:19:33.684Z,3.20
2023-04-03T18:22:04.802Z,3.65
2023-04-03T18:24:34.281Z,3.15
2023-04-03T18:27:06.150Z,4.43
2023-04-03T18:29:36.160Z,5.53
2023-04-03T18:32:04.502Z,4.97
2023-04-03T18:34:31.851Z,3.03
2023-04-03T18:36:58.576Z,4.05
2023-04-03T18:39:26.892Z,3.45
2023-04-03T18:41:55.073Z,4.78
2023-04-03T18:44:25.202Z,4.53
2023-04-03T18:46:53.852Z,2.92
2023-04-03T18:49:21.021Z,5.53
2023-04-03T18:51:47.885Z,3.78
2023-04-03T18:54:14.494Z,5.22
2023-04-03T18:56:41.185Z,4.22
2023-04-03T18:59:07.890Z,4.82
2023-04-03T19:01:35.100Z,6.80
2023-04-03T19:04:02.251Z,5.07
2023-04-03T19:06:29.434Z,3.25
2023-04-03T19:08:56.357Z,6.63
2023-04-03T19:11:23.147Z,5.55
2023-04-03T19:16:20.003Z,6.18
2023-04-03T19:18:46.638Z,5.47
2023-04-03T19:21:14.854Z,4.70
2023-04-03T19:23:44.643Z,5.60
2023-04-03T19:26:12.900Z,4.90
2023-04-03T19:28:41.610Z,3.55
2023-04-03T19:31:17.742Z,5.53
2023-04-03T19:33:45.628Z,4.07
2023-04-03T19:36:12.661Z,4.57
2023-04-03T19:38:39.869Z,5.63
2023-04-03T19:41:12.963Z,7.15
2023-04-03T19:43:40.138Z,5.15
2023-04-03T19:46:07.260Z,8.35
2023-04-03T19:48:35.740Z,7.28
2023-04-03T19:51:04.127Z,6.85
2023-04-03T19:53:31.024Z,5.72
2023-04-03T19:55:58.184Z,5.70
2023-04-03T19:58:27.815Z,6.10
2023-04-03T20:00:55.489Z,4.97
2023-04-03T20:03:23.765Z,5.88
2023-04-03T20:05:50.993Z,4.20
2023-04-03T20:08:18.137Z,5.03
2023-04-03T20:10:44.856Z,7.32
2023-04-03T20:13:13.899Z,4.60
2023-04-03T20:15:42.014Z,5.70
2023-04-03T20:18:17.753Z,5.03
2023-04-03T20:20:55.366Z,5.25
2023-04-03T20:23:23.033Z,6.47
2023-04-03T20:26:01.933Z,5.55
2023-04-03T20:28:36.317Z,5.83
2023-04-03T20:31:03.800Z,5.75
2023-04-03T20:33:30.577Z,7.40
2023-04-03T20:35:58.030Z,4.15
2023-04-03T20:38:25.334Z,6.43
2023-04-03T20:40:52.370Z,6.63
2023-04-03T20:43:19.575Z,5.65
2023-04-03T20:45:47.999Z,22.30
2023-04-03T20:48:15.118Z,15.35
2023-04-03T20:50:42.099Z,13.07
2023-04-03T20:53:09.039Z,10.07
2023-04-03T20:55:35.763Z,6.03
2023-04-03T20:58:03.481Z,8.10
2023-04-03T21:00:34.355Z,7.65
2023-04-03T21:03:01.576Z,5.95
2023-04-03T21:05:30.379Z,7.72
2023-04-03T21:08:35.009Z,7.20
2023-04-03T21:11:39.403Z,7.75
2023-04-03T21:14:46.851Z,6.50
2023-04-03T21:17:13.737Z,7.70
2023-04-03T21:19:46.233Z,6.88
2023-04-03T21:22:13.829Z,5.47
2023-04-03T21:24:41.029Z,4.53
2023-04-03T21:27:08.243Z,5.03
2023-04-03T21:29:35.003Z,6.43
2023-04-03T21:32:01.847Z,6.00
2023-04-03T21:34:30.397Z,7.38
2023-04-03T21:37:08.767Z,6.05
2023-04-03T21:39:35.902Z,7.78
2023-04-03T21:42:02.504Z,5.60
2023-04-03T21:44:29.886Z,6.82
2023-04-03T21:46:56.652Z,6.28
2023-04-03T21:49:24.842Z,6.32
2023-04-03T21:51:52.275Z,5.43
2023-04-03T21:54:19.785Z,7.00
2023-04-03T21:56:48.046Z,5.95
2023-04-03T21:59:15.849Z,6.60
2023-04-03T22:01:43.724Z,6.57
2023-04-03T22:04:10.934Z,5.32
2023-04-03T22:06:38.127Z,6.80
2023-04-03T22:09:05.049Z,6.00
2023-04-03T22:11:32.175Z,5.05
2023-04-03T22:13:58.854Z,5.22
2023-04-03T22:16:25.656Z,5.18
2023-04-03T22:18:52.967Z,5.50
2023-04-03T22:21:20.863Z,7.03
2023-04-03T22:23:47.537Z,6.47
2023-04-03T22:26:14.373Z,5.05
2023-04-03T22:28:46.170Z,6.68
2023-04-03T22:31:14.096Z,5.85
2023-04-03T22:33:41.942Z,4.40
2023-04-03T22:36:10.364Z,5.47
2023-04-03T22:38:37.919Z,5.00
2023-04-03T22:41:07.134Z,5.35
2023-04-03T22:43:36.357Z,8.52
2023-04-03T22:46:05.386Z,7.57
2023-04-03T22:48:32.179Z,6.03
2023-04-03T22:51:01.005Z,5.82
2023-04-03T22:53:28.592Z,5.75
2023-04-03T22:55:59.554Z,5.78
2023-04-03T22:58:26.964Z,4.70
2023-04-03T23:01:10.774Z,5.68
2023-04-03T23:03:40.008Z,5.13
2023-04-03T23:06:07.715Z,5.45
2023-04-03T23:08:35.320Z,5.47
2023-04-03T23:11:02.297Z,6.15
2023-04-03T23:13:29.618Z,6.60
2023-04-03T23:15:57.827Z,6.18
2023-04-03T23:18:26.883Z,4.65
2023-04-03T23:20:55.077Z,4.40
2023-04-03T23:23:23.582Z,6.28
2023-04-03T23:25:53.595Z,5.68
2023-04-03T23:28:20.995Z,4.65
2023-04-03T23:30:48.173Z,4.55
2023-04-03T23:33:15.443Z,5.13
2023-04-03T23:35:47.888Z,5.75
2023-04-03T23:38:15.831Z,7.15
2023-04-03T23:40:44.545Z,6.20
2023-04-03T23:43:11.656Z,6.65
2023-04-03T23:45:39.056Z,5.05
2023-04-03T23:48:06.151Z,5.57
2023-04-03T23:50:33.147Z,4.95
2023-04-03T23:52:59.790Z,6.45
2023-04-03T23:55:27.158Z,5.15
2023-04-03T23:57:53.881Z,5.43
